sensor_id;sensor_type;location;lat;lon;timestamp;P1;durP1;ratioP1;P2;durP2;ratioP2
74495;SDS011;62979;55.720;37.606;2022-08-20T00:01:06;24.55;;;17.50;;
74495;SDS011;62979;55.720;37.606;2022-08-20T00:03:34;24.65;;;16.45;;
74495;SDS011;62979;55.720;37.606;2022-08-20T00:06:04;20.52;;;16.17;;
74495;SDS011;62979;55.720;37.606;2022-08-20T00:08:36;24.70;;;15.43;;
74495;SDS011;62979;55.720;37.606;2022-08-20T00:11:07;22.33;;;15.60;;
74495;SDS011;62979;55.720;37.606;2022-08-20T00:13:38;26.83;;;16.55;;
74495;SDS011;62979;55.720;37.606;2022-08-20T00:16:10;22.10;;;15.63;;
74495;SDS011;62979;55.720;37.606;2022-08-20T00:18:39;21.73;;;15.88;;
74495;SDS011;62979;55.720;37.606;2022-08-20T00:21:07;27.88;;;17.27;;
74495;SDS011;62979;55.720;37.606;2022-08-20T00:23:42;28.55;;;18.65;;
74495;SDS011;62979;55.720;37.606;2022-08-20T00:26:13;26.95;;;18.20;;
74495;SDS011;62979;55.720;37.606;2022-08-20T00:28:41;24.63;;;16.83;;
74495;SDS011;62979;55.720;37.606;2022-08-20T00:31:09;23.83;;;17.77;;
74495;SDS011;62979;55.720;37.606;2022-08-20T00:33:39;24.95;;;18.75;;
74495;SDS011;62979;55.720;37.606;2022-08-20T00:36:06;24.45;;;18.02;;
74495;SDS011;62979;55.720;37.606;2022-08-20T00:38:36;25.05;;;18.60;;
74495;SDS011;62979;55.720;37.606;2022-08-20T00:41:06;28.42;;;18.73;;
74495;SDS011;62979;55.720;37.606;2022-08-20T00:43:39;24.90;;;17.50;;
74495;SDS011;62979;55.720;37.606;2022-08-20T00:46:10;27.63;;;17.67;;
74495;SDS011;62979;55.720;37.606;2022-08-20T00:48:44;23.10;;;17.27;;
74495;SDS011;62979;55.720;37.606;2022-08-20T00:51:19;19.90;;;17.25;;
74495;SDS011;62979;55.720;37.606;2022-08-20T00:53:54;25.38;;;17.58;;
74495;SDS011;62979;55.720;37.606;2022-08-20T00:58:58;23.83;;;17.63;;
74495;SDS011;62979;55.720;37.606;2022-08-20T01:01:27;21.83;;;17.75;;
74495;SDS011;62979;55.720;37.606;2022-08-20T01:03:58;23.58;;;15.98;;
74495;SDS011;62979;55.720;37.606;2022-08-20T01:06:25;21.77;;;16.60;;
74495;SDS011;62979;55.720;37.606;2022-08-20T01:08:52;22.67;;;16.95;;
74495;SDS011;62979;55.720;37.606;2022-08-20T01:11:19;22.35;;;15.27;;
74495;SDS011;62979;55.720;37.606;2022-08-20T01:13:54;21.27;;;15.27;;
74495;SDS011;62979;55.720;37.606;2022-08-20T01:16:26;23.33;;;15.32;;
74495;SDS011;62979;55.720;37.606;2022-08-20T01:18:57;21.98;;;13.93;;
74495;SDS011;62979;55.720;37.606;2022-08-20T01:21:25;18.75;;;14.00;;
74495;SDS011;62979;55.720;37.606;2022-08-20T01:23:58;22.15;;;14.30;;
74495;SDS011;62979;55.720;37.606;2022-08-20T01:26:38;19.95;;;14.38;;
74495;SDS011;62979;55.720;37.606;2022-08-20T01:29:09;19.30;;;13.70;;
74495;SDS011;62979;55.720;37.606;2022-08-20T01:31:41;19.15;;;14.30;;
74495;SDS011;62979;55.720;37.606;2022-08-20T01:34:10;19.38;;;13.43;;
74495;SDS011;62979;55.720;37.606;2022-08-20T01:36:39;17.77;;;13.30;;
74495;SDS011;62979;55.720;37.606;2022-08-20T01:39:11;15.38;;;12.70;;
74495;SDS011;62979;55.720;37.606;2022-08-20T01:41:46;15.85;;;11.40;;
74495;SDS011;62979;55.720;37.606;2022-08-20T01:44:22;16.90;;;12.70;;
74495;SDS011;62979;55.720;37.606;2022-08-20T01:46:50;20.77;;;13.20;;
74495;SDS011;62979;55.720;37.606;2022-08-20T01:49:20;19.50;;;11.48;;
74495;SDS011;62979;55.720;37.606;2022-08-20T01:51:52;18.48;;;11.55;;
74495;SDS011;62979;55.720;37.606;2022-08-20T01:54:22;14.35;;;10.80;;
74495;SDS011;62979;55.720;37.606;2022-08-20T01:56:54;16.40;;;9.82;;
74495;SDS011;62979;55.720;37.606;2022-08-20T01:59:23;15.50;;;10.32;;
74495;SDS011;62979;55.720;37.606;2022-08-20T02:01:50;13.50;;;10.07;;
74495;SDS011;62979;55.720;37.606;2022-08-20T02:04:18;13.45;;;9.98;;
74495;SDS011;62979;55.720;37.606;2022-08-20T02:06:47;14.43;;;9.88;;
74495;SDS011;62979;55.720;37.606;2022-08-20T02:09:17;13.65;;;9.65;;
74495;SDS011;62979;55.720;37.606;2022-08-20T02:11:44;12.93;;;8.35;;
74495;SDS011;62979;55.720;37.606;2022-08-20T02:14:13;14.52;;;8.82;;
74495;SDS011;62979;55.720;37.606;2022-08-20T02:16:43;10.90;;;8.45;;
74495;SDS011;62979;55.720;37.606;2022-08-20T02:19:14;13.48;;;8.90;;
74495;SDS011;62979;55.720;37.606;2022-08-20T02:21:46;14.05;;;8.77;;
74495;SDS011;62979;55.720;37.606;2022-08-20T02:24:18;11.40;;;8.40;;
74495;SDS011;62979;55.720;37.606;2022-08-20T02:26:46;11.15;;;7.90;;
74495;SDS011;62979;55.720;37.606;2022-08-20T02:29:15;12.15;;;7.82;;
74495;SDS011;62979;55.720;37.606;2022-08-20T02:31:43;13.43;;;7.90;;
74495;SDS011;62979;55.720;37.606;2022-08-20T02:34:11;11.65;;;8.02;;
74495;SDS011;62979;55.720;37.606;2022-08-20T02:36:42;12.23;;;7.60;;
74495;SDS011;62979;55.720;37.606;2022-08-20T02:39:11;12.82;;;8.25;;
74495;SDS011;62979;55.720;37.606;2022-08-20T02:41:38;12.55;;;8.02;;
74495;SDS011;62979;55.720;37.606;2022-08-20T02:44:06;17.23;;;8.07;;
74495;SDS011;62979;55.720;37.606;2022-08-20T02:46:35;14.32;;;8.95;;
74495;SDS011;62979;55.720;37.606;2022-08-20T02:49:03;25.45;;;9.93;;
74495;SDS011;62979;55.720;37.606;2022-08-20T02:51:30;17.55;;;9.15;;
74495;SDS011;62979;55.720;37.606;2022-08-20T02:53:57;18.60;;;10.38;;
74495;SDS011;62979;55.720;37.606;2022-08-20T02:56:25;16.58;;;11.20;;
74495;SDS011;62979;55.720;37.606;2022-08-20T02:58:52;20.25;;;11.43;;
74495;SDS011;62979;55.720;37.606;2022-08-20T03:01:19;14.10;;;11.10;;
74495;SDS011;62979;55.720;37.606;2022-08-20T03:03:47;19.45;;;13.32;;
74495;SDS011;62979;55.720;37.606;2022-08-20T03:06:15;22.83;;;15.80;;
74495;SDS011;62979;55.720;37.606;2022-08-20T03:08:42;24.45;;;14.60;;
74495;SDS011;62979;55.720;37.606;2022-08-20T03:13:37;27.23;;;20.08;;
74495;SDS011;62979;55.720;37.606;2022-08-20T03:16:04;27.25;;;20.05;;
74495;SDS011;62979;55.720;37.606;2022-08-20T03:18:33;28.77;;;21.02;;
74495;SDS011;62979;55.720;37.606;2022-08-20T03:21:04;30.48;;;22.13;;
74495;SDS011;62979;55.720;37.606;2022-08-20T03:23:33;38.30;;;23.20;;
74495;SDS011;62979;55.720;37.606;2022-08-20T03:26:02;34.42;;;24.40;;
74495;SDS011;62979;55.720;37.606;2022-08-20T03:28:31;35.30;;;25.45;;
74495;SDS011;62979;55.720;37.606;2022-08-20T03:33:26;38.75;;;24.98;;
74495;SDS011;62979;55.720;37.606;2022-08-20T03:35:53;33.20;;;25.83;;
74495;SDS011;62979;55.720;37.606;2022-08-20T03:38:22;36.83;;;26.98;;
74495;SDS011;62979;55.720;37.606;2022-08-20T03:40:51;39.88;;;26.80;;
74495;SDS011;62979;55.720;37.606;2022-08-20T03:43:18;40.58;;;25.65;;
74495;SDS011;62979;55.720;37.606;2022-08-20T03:45:45;33.22;;;25.20;;
74495;SDS011;62979;55.720;37.606;2022-08-20T03:48:13;29.50;;;23.77;;
74495;SDS011;62979;55.720;37.606;2022-08-20T03:50:43;32.65;;;20.05;;
74495;SDS011;62979;55.720;37.606;2022-08-20T03:53:12;26.75;;;18.35;;
74495;SDS011;62979;55.720;37.606;2022-08-20T03:55:42;22.17;;;17.75;;
74495;SDS011;62979;55.720;37.606;2022-08-20T03:58:12;23.85;;;14.80;;
74495;SDS011;62979;55.720;37.606;2022-08-20T04:00:42;23.70;;;16.45;;
74495;SDS011;62979;55.720;37.606;2022-08-20T04:03:13;20.88;;;14.43;;
74495;SDS011;62979;55.720;37.606;2022-08-20T04:05:41;21.88;;;15.15;;
74495;SDS011;62979;55.720;37.606;2022-08-20T04:08:10;24.88;;;14.45;;
74495;SDS011;62979;55.720;37.606;2022-08-20T04:10:39;19.95;;;14.45;;
74495;SDS011;62979;55.720;37.606;2022-08-20T04:13:11;21.90;;;16.05;;
74495;SDS011;62979;55.720;37.606;2022-08-20T04:15:41;25.98;;;16.50;;
74495;SDS011;62979;55.720;37.606;2022-08-20T04:18:10;21.85;;;15.38;;
74495;SDS011;62979;55.720;37.606;2022-08-20T04:20:40;23.77;;;17.85;;
74495;SDS011;62979;55.720;37.606;2022-08-20T04:23:08;19.17;;;14.38;;
74495;SDS011;62979;55.720;37.606;2022-08-20T04:28:07;20.83;;;12.85;;
74495;SDS011;62979;55.720;37.606;2022-08-20T04:30:38;20.75;;;13.65;;
74495;SDS011;62979;55.720;37.606;2022-08-20T04:33:06;20.25;;;12.68;;
74495;SDS011;62979;55.720;37.606;2022-08-20T04:35:34;16.75;;;11.82;;
74495;SDS011;62979;55.720;37.606;2022-08-20T04:40:32;23.08;;;10.82;;
74495;SDS011;62979;55.720;37.606;2022-08-20T04:43:24;15.57;;;10.88;;
74495;SDS011;62979;55.720;37.606;2022-08-20T04:45:55;17.33;;;11.13;;
74495;SDS011;62979;55.720;37.606;2022-08-20T04:48:25;17.38;;;11.40;;
74495;SDS011;62979;55.720;37.606;2022-08-20T04:50:53;19.63;;;10.52;;
74495;SDS011;62979;55.720;37.606;2022-08-20T04:53:22;18.33;;;10.80;;
74495;SDS011;62979;55.720;37.606;2022-08-20T04:55:53;15.93;;;9.10;;
74495;SDS011;62979;55.720;37.606;2022-08-20T04:58:25;14.98;;;9.13;;
74495;SDS011;62979;55.720;37.606;2022-08-20T05:00:56;14.65;;;10.13;;
74495;SDS011;62979;55.720;37.606;2022-08-20T05:03:25;17.88;;;9.48;;
74495;SDS011;62979;55.720;37.606;2022-08-20T05:05:53;14.25;;;8.98;;
74495;SDS011;62979;55.720;37.606;2022-08-20T05:08:22;17.63;;;9.13;;
74495;SDS011;62979;55.720;37.606;2022-08-20T05:10:51;16.38;;;9.73;;
74495;SDS011;62979;55.720;37.606;2022-08-20T05:13:20;14.57;;;9.57;;
74495;SDS011;62979;55.720;37.606;2022-08-20T05:18:16;14.80;;;10.30;;
74495;SDS011;62979;55.720;37.606;2022-08-20T05:20:44;12.10;;;7.57;;
74495;SDS011;62979;55.720;37.606;2022-08-20T05:23:13;15.77;;;9.38;;
74495;SDS011;62979;55.720;37.606;2022-08-20T05:25:43;18.02;;;9.98;;
74495;SDS011;62979;55.720;37.606;2022-08-20T05:28:16;13.45;;;8.60;;
74495;SDS011;62979;55.720;37.606;2022-08-20T05:30:47;12.23;;;8.65;;
74495;SDS011;62979;55.720;37.606;2022-08-20T05:33:17;15.57;;;8.43;;
74495;SDS011;62979;55.720;37.606;2022-08-20T05:35:47;15.65;;;8.35;;
74495;SDS011;62979;55.720;37.606;2022-08-20T05:38:17;14.68;;;9.75;;
74495;SDS011;62979;55.720;37.606;2022-08-20T05:40:47;16.23;;;9.02;;
74495;SDS011;62979;55.720;37.606;2022-08-20T05:43:14;15.35;;;8.43;;
74495;SDS011;62979;55.720;37.606;2022-08-20T05:45:43;14.48;;;9.23;;
74495;SDS011;62979;55.720;37.606;2022-08-20T05:48:14;16.40;;;8.98;;
74495;SDS011;62979;55.720;37.606;2022-08-20T05:50:44;16.25;;;9.18;;
74495;SDS011;62979;55.720;37.606;2022-08-20T05:53:13;15.25;;;8.55;;
74495;SDS011;62979;55.720;37.606;2022-08-20T05:55:41;12.82;;;7.95;;
74495;SDS011;62979;55.720;37.606;2022-08-20T05:58:13;13.90;;;8.70;;
74495;SDS011;62979;55.720;37.606;2022-08-20T06:00:43;14.30;;;7.88;;
74495;SDS011;62979;55.720;37.606;2022-08-20T06:03:11;17.38;;;8.10;;
74495;SDS011;62979;55.720;37.606;2022-08-20T06:05:56;17.65;;;8.02;;
74495;SDS011;62979;55.720;37.606;2022-08-20T06:08:23;11.30;;;7.85;;
74495;SDS011;62979;55.720;37.606;2022-08-20T06:10:51;14.13;;;7.20;;
74495;SDS011;62979;55.720;37.606;2022-08-20T06:13:18;10.75;;;7.28;;
74495;SDS011;62979;55.720;37.606;2022-08-20T06:15:45;16.90;;;6.78;;
74495;SDS011;62979;55.720;37.606;2022-08-20T06:20:41;14.70;;;6.40;;
74495;SDS011;62979;55.720;37.606;2022-08-20T06:23:10;13.20;;;5.63;;
74495;SDS011;62979;55.720;37.606;2022-08-20T06:25:37;13.35;;;5.35;;
74495;SDS011;62979;55.720;37.606;2022-08-20T06:28:04;11.00;;;6.13;;
74495;SDS011;62979;55.720;37.606;2022-08-20T06:30:31;12.75;;;6.63;;
74495;SDS011;62979;55.720;37.606;2022-08-20T06:33:00;10.15;;;6.07;;
74495;SDS011;62979;55.720;37.606;2022-08-20T06:35:29;12.30;;;6.05;;
74495;SDS011;62979;55.720;37.606;2022-08-20T06:37:57;9.20;;;4.78;;
74495;SDS011;62979;55.720;37.606;2022-08-20T06:42:53;12.27;;;5.30;;
74495;SDS011;62979;55.720;37.606;2022-08-20T06:45:22;10.80;;;4.85;;
74495;SDS011;62979;55.720;37.606;2022-08-20T06:47:53;8.55;;;4.95;;
74495;SDS011;62979;55.720;37.606;2022-08-20T06:50:23;6.68;;;4.35;;
74495;SDS011;62979;55.720;37.606;2022-08-20T06:52:55;9.20;;;5.05;;
74495;SDS011;62979;55.720;37.606;2022-08-20T06:55:23;10.68;;;4.43;;
74495;SDS011;62979;55.720;37.606;2022-08-20T06:57:55;10.95;;;4.18;;
74495;SDS011;62979;55.720;37.606;2022-08-20T07:00:24;6.80;;;3.88;;
74495;SDS011;62979;55.720;37.606;2022-08-20T07:02:52;17.00;;;5.78;;
74495;SDS011;62979;55.720;37.606;2022-08-20T07:05:20;10.13;;;4.55;;
74495;SDS011;62979;55.720;37.606;2022-08-20T07:07:47;11.48;;;4.20;;
74495;SDS011;62979;55.720;37.606;2022-08-20T07:10:17;12.02;;;4.50;;
74495;SDS011;62979;55.720;37.606;2022-08-20T07:12:46;13.60;;;5.35;;
74495;SDS011;62979;55.720;37.606;2022-08-20T07:15:14;13.48;;;5.43;;
74495;SDS011;62979;55.720;37.606;2022-08-20T07:17:46;15.63;;;4.97;;
74495;SDS011;62979;55.720;37.606;2022-08-20T07:20:15;18.35;;;5.82;;
74495;SDS011;62979;55.720;37.606;2022-08-20T07:22:43;13.63;;;4.63;;
74495;SDS011;62979;55.720;37.606;2022-08-20T07:25:11;11.45;;;4.13;;
74495;SDS011;62979;55.720;37.606;2022-08-20T07:27:42;14.18;;;5.13;;
74495;SDS011;62979;55.720;37.606;2022-08-20T07:30:11;8.55;;;4.20;;
74495;SDS011;62979;55.720;37.606;2022-08-20T07:33:03;12.00;;;4.63;;
74495;SDS011;62979;55.720;37.606;2022-08-20T07:35:30;9.55;;;3.70;;
74495;SDS011;62979;55.720;37.606;2022-08-20T07:37:57;9.70;;;4.40;;
74495;SDS011;62979;55.720;37.606;2022-08-20T07:40:26;8.98;;;4.00;;
74495;SDS011;62979;55.720;37.606;2022-08-20T07:42:57;11.07;;;3.92;;
74495;SDS011;62979;55.720;37.606;2022-08-20T07:45:27;8.98;;;4.38;;
74495;SDS011;62979;55.720;37.606;2022-08-20T07:47:58;9.85;;;3.90;;
74495;SDS011;62979;55.720;37.606;2022-08-20T07:50:32;7.80;;;3.72;;
74495;SDS011;62979;55.720;37.606;2022-08-20T07:52:59;9.38;;;3.95;;
74495;SDS011;62979;55.720;37.606;2022-08-20T07:55:26;7.50;;;4.72;;
74495;SDS011;62979;55.720;37.606;2022-08-20T07:57:54;8.55;;;3.50;;
74495;SDS011;62979;55.720;37.606;2022-08-20T08:00:31;6.57;;;3.60;;
74495;SDS011;62979;55.720;37.606;2022-08-20T08:05:25;14.55;;;4.60;;
74495;SDS011;62979;55.720;37.606;2022-08-20T08:07:53;9.63;;;4.85;;
74495;SDS011;62979;55.720;37.606;2022-08-20T08:10:21;16.63;;;4.70;;
74495;SDS011;62979;55.720;37.606;2022-08-20T08:12:50;12.38;;;4.70;;
74495;SDS011;62979;55.720;37.606;2022-08-20T08:15:22;10.88;;;4.10;;
74495;SDS011;62979;55.720;37.606;2022-08-20T08:17:56;10.65;;;3.78;;
74495;SDS011;62979;55.720;37.606;2022-08-20T08:20:32;11.98;;;4.20;;
74495;SDS011;62979;55.720;37.606;2022-08-20T08:23:02;14.00;;;4.32;;
74495;SDS011;62979;55.720;37.606;2022-08-20T08:25:29;9.63;;;3.45;;
74495;SDS011;62979;55.720;37.606;2022-08-20T08:27:57;8.75;;;4.03;;
74495;SDS011;62979;55.720;37.606;2022-08-20T08:30:28;6.88;;;3.40;;
74495;SDS011;62979;55.720;37.606;2022-08-20T08:32:55;14.63;;;4.97;;
74495;SDS011;62979;55.720;37.606;2022-08-20T08:35:40;11.82;;;4.07;;
74495;SDS011;62979;55.720;37.606;2022-08-20T08:38:10;11.60;;;4.03;;
74495;SDS011;62979;55.720;37.606;2022-08-20T08:40:38;13.98;;;4.57;;
74495;SDS011;62979;55.720;37.606;2022-08-20T08:43:06;8.23;;;3.70;;
74495;SDS011;62979;55.720;37.606;2022-08-20T08:45:39;11.52;;;5.25;;
74495;SDS011;62979;55.720;37.606;2022-08-20T08:48:10;11.10;;;3.75;;
74495;SDS011;62979;55.720;37.606;2022-08-20T08:50:39;8.55;;;3.70;;
74495;SDS011;62979;55.720;37.606;2022-08-20T08:53:09;14.25;;;5.88;;
74495;SDS011;62979;55.720;37.606;2022-08-20T08:55:44;15.82;;;5.60;;
74495;SDS011;62979;55.720;37.606;2022-08-20T09:00:40;9.68;;;5.38;;
74495;SDS011;62979;55.720;37.606;2022-08-20T09:03:07;12.35;;;5.57;;
74495;SDS011;62979;55.720;37.606;2022-08-20T09:05:38;17.42;;;5.63;;
74495;SDS011;62979;55.720;37.606;2022-08-20T09:08:11;15.20;;;5.75;;
74495;SDS011;62979;55.720;37.606;2022-08-20T09:10:41;17.02;;;5.13;;
74495;SDS011;62979;55.720;37.606;2022-08-20T09:13:09;11.07;;;5.55;;
74495;SDS011;62979;55.720;37.606;2022-08-20T09:15:36;12.40;;;5.32;;
74495;SDS011;62979;55.720;37.606;2022-08-20T09:18:05;12.65;;;6.10;;
74495;SDS011;62979;55.720;37.606;2022-08-20T09:20:32;11.15;;;6.10;;
74495;SDS011;62979;55.720;37.606;2022-08-20T09:23:00;13.48;;;6.68;;
74495;SDS011;62979;55.720;37.606;2022-08-20T09:25:30;15.55;;;7.43;;
74495;SDS011;62979;55.720;37.606;2022-08-20T09:27:57;11.98;;;7.00;;
74495;SDS011;62979;55.720;37.606;2022-08-20T09:30:24;13.27;;;8.05;;
74495;SDS011;62979;55.720;37.606;2022-08-20T09:32:51;16.25;;;7.43;;
74495;SDS011;62979;55.720;37.606;2022-08-20T09:35:19;19.15;;;7.97;;
74495;SDS011;62979;55.720;37.606;2022-08-20T09:37:47;13.40;;;7.70;;
74495;SDS011;62979;55.720;37.606;2022-08-20T09:40:14;23.23;;;9.80;;
74495;SDS011;62979;55.720;37.606;2022-08-20T09:42:41;15.68;;;9.38;;
74495;SDS011;62979;55.720;37.606;2022-08-20T09:45:08;13.38;;;8.77;;
74495;SDS011;62979;55.720;37.606;2022-08-20T09:47:37;19.17;;;9.55;;
74495;SDS011;62979;55.720;37.606;2022-08-20T09:52:34;16.35;;;9.35;;
74495;SDS011;62979;55.720;37.606;2022-08-20T09:55:12;17.73;;;10.20;;
74495;SDS011;62979;55.720;37.606;2022-08-20T09:57:46;15.77;;;10.38;;
74495;SDS011;62979;55.720;37.606;2022-08-20T10:00:15;17.85;;;10.02;;
74495;SDS011;62979;55.720;37.606;2022-08-20T10:02:44;15.35;;;10.48;;
74495;SDS011;62979;55.720;37.606;2022-08-20T10:07:40;11.93;;;8.50;;
74495;SDS011;62979;55.720;37.606;2022-08-20T10:10:09;19.55;;;11.95;;
74495;SDS011;62979;55.720;37.606;2022-08-20T10:12:39;20.17;;;11.93;;
74495;SDS011;62979;55.720;37.606;2022-08-20T10:15:07;17.45;;;11.05;;
74495;SDS011;62979;55.720;37.606;2022-08-20T10:17:36;16.00;;;11.20;;
74495;SDS011;62979;55.720;37.606;2022-08-20T10:20:05;16.88;;;11.38;;
74495;SDS011;62979;55.720;37.606;2022-08-20T10:22:34;17.17;;;11.65;;
74495;SDS011;62979;55.720;37.606;2022-08-20T10:25:03;13.15;;;10.23;;
74495;SDS011;62979;55.720;37.606;2022-08-20T10:27:32;17.27;;;10.20;;
74495;SDS011;62979;55.720;37.606;2022-08-20T10:29:59;14.68;;;10.45;;
74495;SDS011;62979;55.720;37.606;2022-08-20T10:34:54;14.23;;;9.18;;
74495;SDS011;62979;55.720;37.606;2022-08-20T10:37:22;17.20;;;9.77;;
74495;SDS011;62979;55.720;37.606;2022-08-20T10:39:50;18.20;;;9.93;;
74495;SDS011;62979;55.720;37.606;2022-08-20T10:42:20;13.82;;;8.05;;
74495;SDS011;62979;55.720;37.606;2022-08-20T10:44:48;11.50;;;7.97;;
74495;SDS011;62979;55.720;37.606;2022-08-20T10:47:16;16.05;;;8.15;;
74495;SDS011;62979;55.720;37.606;2022-08-20T10:49:47;12.48;;;8.10;;
74495;SDS011;62979;55.720;37.606;2022-08-20T10:52:16;13.98;;;8.23;;
74495;SDS011;62979;55.720;37.606;2022-08-20T10:54:44;11.20;;;7.15;;
74495;SDS011;62979;55.720;37.606;2022-08-20T10:57:12;16.52;;;7.57;;
74495;SDS011;62979;55.720;37.606;2022-08-20T10:59:44;16.40;;;8.07;;
74495;SDS011;62979;55.720;37.606;2022-08-20T11:02:14;12.02;;;7.30;;
74495;SDS011;62979;55.720;37.606;2022-08-20T11:04:42;9.80;;;6.07;;
74495;SDS011;62979;55.720;37.606;2022-08-20T11:07:13;9.15;;;6.28;;
74495;SDS011;62979;55.720;37.606;2022-08-20T11:12:11;17.70;;;5.70;;
74495;SDS011;62979;55.720;37.606;2022-08-20T11:14:38;10.70;;;6.60;;
74495;SDS011;62979;55.720;37.606;2022-08-20T11:17:07;10.63;;;5.45;;
74495;SDS011;62979;55.720;37.606;2022-08-20T11:19:37;11.20;;;5.93;;
74495;SDS011;62979;55.720;37.606;2022-08-20T11:22:06;16.70;;;5.15;;
74495;SDS011;62979;55.720;37.606;2022-08-20T11:27:01;10.65;;;5.20;;
74495;SDS011;62979;55.720;37.606;2022-08-20T11:29:29;8.77;;;4.88;;
74495;SDS011;62979;55.720;37.606;2022-08-20T11:31:56;10.43;;;5.30;;
74495;SDS011;62979;55.720;37.606;2022-08-20T11:34:25;8.50;;;5.22;;
74495;SDS011;62979;55.720;37.606;2022-08-20T11:36:52;9.65;;;5.35;;
74495;SDS011;62979;55.720;37.606;2022-08-20T11:39:19;14.07;;;5.45;;
74495;SDS011;62979;55.720;37.606;2022-08-20T11:41:46;11.07;;;4.72;;
74495;SDS011;62979;55.720;37.606;2022-08-20T11:44:13;7.93;;;3.85;;
74495;SDS011;62979;55.720;37.606;2022-08-20T11:46:40;10.00;;;3.22;;
74495;SDS011;62979;55.720;37.606;2022-08-20T11:49:07;9.02;;;3.65;;
74495;SDS011;62979;55.720;37.606;2022-08-20T11:51:36;7.85;;;3.70;;
74495;SDS011;62979;55.720;37.606;2022-08-20T11:54:03;8.48;;;3.47;;
74495;SDS011;62979;55.720;37.606;2022-08-20T11:56:30;8.75;;;3.78;;
74495;SDS011;62979;55.720;37.606;2022-08-20T12:01:25;9.10;;;3.65;;
74495;SDS011;62979;55.720;37.606;2022-08-20T12:03:52;8.27;;;3.03;;
74495;SDS011;62979;55.720;37.606;2022-08-20T12:06:19;9.40;;;3.35;;
74495;SDS011;62979;55.720;37.606;2022-08-20T12:08:47;5.75;;;3.10;;
74495;SDS011;62979;55.720;37.606;2022-08-20T12:11:14;8.57;;;3.50;;
74495;SDS011;62979;55.720;37.606;2022-08-20T12:13:41;8.70;;;2.97;;
74495;SDS011;62979;55.720;37.606;2022-08-20T12:16:08;10.95;;;3.00;;
74495;SDS011;62979;55.720;37.606;2022-08-20T12:18:35;11.88;;;3.53;;
74495;SDS011;62979;55.720;37.606;2022-08-20T12:21:02;9.90;;;3.80;;
74495;SDS011;62979;55.720;37.606;2022-08-20T12:23:29;4.35;;;3.80;;
74495;SDS011;62979;55.720;37.606;2022-08-20T12:25:58;7.80;;;3.58;;
74495;SDS011;62979;55.720;37.606;2022-08-20T12:28:27;10.32;;;3.78;;
74495;SDS011;62979;55.720;37.606;2022-08-20T12:30:55;8.80;;;3.22;;
74495;SDS011;62979;55.720;37.606;2022-08-20T12:35:49;15.27;;;3.65;;
74495;SDS011;62979;55.720;37.606;2022-08-20T12:38:17;11.00;;;3.75;;
74495;SDS011;62979;55.720;37.606;2022-08-20T12:40:44;6.68;;;3.70;;
74495;SDS011;62979;55.720;37.606;2022-08-20T12:43:12;15.40;;;3.65;;
74495;SDS011;62979;55.720;37.606;2022-08-20T12:45:40;5.93;;;3.15;;
74495;SDS011;62979;55.720;37.606;2022-08-20T12:50:37;8.05;;;3.40;;
74495;SDS011;62979;55.720;37.606;2022-08-20T12:53:07;8.98;;;3.58;;
74495;SDS011;62979;55.720;37.606;2022-08-20T12:58:02;4.93;;;2.72;;
74495;SDS011;62979;55.720;37.606;2022-08-20T13:00:34;9.85;;;2.88;;
74495;SDS011;62979;55.720;37.606;2022-08-20T13:03:06;8.23;;;3.00;;
74495;SDS011;62979;55.720;37.606;2022-08-20T13:05:33;7.32;;;3.38;;
74495;SDS011;62979;55.720;37.606;2022-08-20T13:08:01;10.27;;;3.00;;
74495;SDS011;62979;55.720;37.606;2022-08-20T13:10:33;7.60;;;3.40;;
74495;SDS011;62979;55.720;37.606;2022-08-20T13:13:08;4.20;;;2.80;;
74495;SDS011;62979;55.720;37.606;2022-08-20T13:15:37;8.98;;;3.25;;
74495;SDS011;62979;55.720;37.606;2022-08-20T13:18:05;12.93;;;3.58;;
74495;SDS011;62979;55.720;37.606;2022-08-20T13:20:33;12.00;;;4.18;;
74495;SDS011;62979;55.720;37.606;2022-08-20T13:23:02;16.60;;;4.13;;
74495;SDS011;62979;55.720;37.606;2022-08-20T13:25:30;11.57;;;3.67;;
74495;SDS011;62979;55.720;37.606;2022-08-20T13:27:58;8.13;;;4.15;;
74495;SDS011;62979;55.720;37.606;2022-08-20T13:30:29;10.13;;;3.17;;
74495;SDS011;62979;55.720;37.606;2022-08-20T13:32:58;9.27;;;4.57;;
74495;SDS011;62979;55.720;37.606;2022-08-20T13:35:26;8.82;;;4.68;;
74495;SDS011;62979;55.720;37.606;2022-08-20T13:37:53;11.05;;;4.28;;
74495;SDS011;62979;55.720;37.606;2022-08-20T13:40:20;19.67;;;5.80;;
74495;SDS011;62979;55.720;37.606;2022-08-20T13:42:48;11.23;;;5.15;;
74495;SDS011;62979;55.720;37.606;2022-08-20T13:45:15;13.75;;;5.38;;
74495;SDS011;62979;55.720;37.606;2022-08-20T13:47:42;11.20;;;5.75;;
74495;SDS011;62979;55.720;37.606;2022-08-20T13:50:12;13.27;;;6.13;;
74495;SDS011;62979;55.720;37.606;2022-08-20T13:52:42;18.45;;;5.57;;
74495;SDS011;62979;55.720;37.606;2022-08-20T13:55:11;11.65;;;5.57;;
74495;SDS011;62979;55.720;37.606;2022-08-20T13:57:42;16.38;;;5.88;;
74495;SDS011;62979;55.720;37.606;2022-08-20T14:00:12;14.75;;;5.97;;
74495;SDS011;62979;55.720;37.606;2022-08-20T14:02:44;8.48;;;5.57;;
74495;SDS011;62979;55.720;37.606;2022-08-20T14:05:12;12.68;;;7.22;;
74495;SDS011;62979;55.720;37.606;2022-08-20T14:07:41;15.23;;;6.15;;
74495;SDS011;62979;55.720;37.606;2022-08-20T14:10:10;9.93;;;6.03;;
74495;SDS011;62979;55.720;37.606;2022-08-20T14:12:41;15.45;;;6.68;;
74495;SDS011;62979;55.720;37.606;2022-08-20T14:15:08;7.57;;;5.80;;
74495;SDS011;62979;55.720;37.606;2022-08-20T14:17:37;11.40;;;6.20;;
74495;SDS011;62979;55.720;37.606;2022-08-20T14:20:07;6.60;;;4.60;;
74495;SDS011;62979;55.720;37.606;2022-08-20T14:22:39;11.68;;;5.65;;
74495;SDS011;62979;55.720;37.606;2022-08-20T14:25:08;9.75;;;5.75;;
74495;SDS011;62979;55.720;37.606;2022-08-20T14:27:38;9.13;;;5.07;;
74495;SDS011;62979;55.720;37.606;2022-08-20T14:30:08;9.63;;;5.60;;
74495;SDS011;62979;55.720;37.606;2022-08-20T14:32:37;11.05;;;4.80;;
74495;SDS011;62979;55.720;37.606;2022-08-20T14:37:33;11.68;;;3.83;;
74495;SDS011;62979;55.720;37.606;2022-08-20T14:40:05;10.73;;;3.92;;
74495;SDS011;62979;55.720;37.606;2022-08-20T14:42:35;8.27;;;3.30;;
74495;SDS011;62979;55.720;37.606;2022-08-20T14:45:03;8.75;;;3.33;;
74495;SDS011;62979;55.720;37.606;2022-08-20T14:47:33;12.60;;;3.58;;
74495;SDS011;62979;55.720;37.606;2022-08-20T14:50:03;12.00;;;3.75;;
74495;SDS011;62979;55.720;37.606;2022-08-20T14:52:32;11.95;;;3.00;;
74495;SDS011;62979;55.720;37.606;2022-08-20T14:55:00;4.90;;;2.90;;
74495;SDS011;62979;55.720;37.606;2022-08-20T14:57:29;10.13;;;3.17;;
74495;SDS011;62979;55.720;37.606;2022-08-20T14:59:56;12.73;;;3.03;;
74495;SDS011;62979;55.720;37.606;2022-08-20T15:02:23;12.00;;;3.40;;
74495;SDS011;62979;55.720;37.606;2022-08-20T15:04:51;12.50;;;3.33;;
74495;SDS011;62979;55.720;37.606;2022-08-20T15:07:21;9.32;;;3.63;;
74495;SDS011;62979;55.720;37.606;2022-08-20T15:09:51;8.65;;;2.70;;
74495;SDS011;62979;55.720;37.606;2022-08-20T15:12:19;7.07;;;2.70;;
74495;SDS011;62979;55.720;37.606;2022-08-20T15:14:48;8.13;;;2.80;;
74495;SDS011;62979;55.720;37.606;2022-08-20T15:17:19;6.65;;;2.75;;
74495;SDS011;62979;55.720;37.606;2022-08-20T15:19:46;10.05;;;2.67;;
74495;SDS011;62979;55.720;37.606;2022-08-20T15:22:14;13.27;;;2.80;;